Terminal Aerodrome Forecast
Issued by NWS

Home | Current Version | Previous Version | Text Only | Print | Product List | Glossary On
Versions: 1 2 3 4 5 6 7 8 9 10 11 12 13 14 15 16 17 18 19 20 21
000
FTUS44 KMAF 311100
TAFHOB
TAF
KHOB 311120Z 3112/0112 10007KT 4SM -RA BR OVC004
     FM312100 16007KT P6SM OVC015
     FM010600 21006KT P6SM SCT040 BKN100=

USA.gov is the U.S. government's official web portal to all federal, state and local government web resources and services.